sensor_id;sensor_type;location;lat;lon;timestamp;temperature;humidity
16287;DHT22;8251;53.568;10.018;2022-07-22T00:00:00;23.30;91.10
16287;DHT22;8251;53.568;10.018;2022-07-22T00:02:27;23.30;91.20
16287;DHT22;8251;53.568;10.018;2022-07-22T00:04:57;23.30;91.10
16287;DHT22;8251;53.568;10.018;2022-07-22T00:07:24;23.30;91.10
16287;DHT22;8251;53.568;10.018;2022-07-22T00:09:51;23.30;91.00
16287;DHT22;8251;53.568;10.018;2022-07-22T00:12:18;23.30;91.00
16287;DHT22;8251;53.568;10.018;2022-07-22T00:14:45;23.30;91.00
16287;DHT22;8251;53.568;10.018;2022-07-22T00:17:12;23.20;91.00
16287;DHT22;8251;53.568;10.018;2022-07-22T00:19:39;23.30;91.00
16287;DHT22;8251;53.568;10.018;2022-07-22T00:22:08;23.30;91.30
16287;DHT22;8251;53.568;10.018;2022-07-22T00:24:34;23.20;91.00
16287;DHT22;8251;53.568;10.018;2022-07-22T00:27:01;23.20;90.90
16287;DHT22;8251;53.568;10.018;2022-07-22T00:29:28;23.10;90.60
16287;DHT22;8251;53.568;10.018;2022-07-22T00:31:55;23.00;90.40
16287;DHT22;8251;53.568;10.018;2022-07-22T00:34:22;22.90;90.40
16287;DHT22;8251;53.568;10.018;2022-07-22T00:36:49;22.90;90.40
16287;DHT22;8251;53.568;10.018;2022-07-22T00:39:20;22.80;90.40
16287;DHT22;8251;53.568;10.018;2022-07-22T00:41:48;22.80;90.40
16287;DHT22;8251;53.568;10.018;2022-07-22T00:44:16;22.70;90.20
16287;DHT22;8251;53.568;10.018;2022-07-22T00:46:43;22.70;90.10
16287;DHT22;8251;53.568;10.018;2022-07-22T00:49:10;22.60;90.10
16287;DHT22;8251;53.568;10.018;2022-07-22T00:51:37;22.60;90.00
16287;DHT22;8251;53.568;10.018;2022-07-22T00:54:05;22.50;90.00
16287;DHT22;8251;53.568;10.018;2022-07-22T00:56:34;22.50;90.00
16287;DHT22;8251;53.568;10.018;2022-07-22T00:59:05;22.40;90.00
16287;DHT22;8251;53.568;10.018;2022-07-22T01:01:32;22.40;89.90
16287;DHT22;8251;53.568;10.018;2022-07-22T01:03:59;22.30;89.80
16287;DHT22;8251;53.568;10.018;2022-07-22T01:06:26;22.30;90.00
16287;DHT22;8251;53.568;10.018;2022-07-22T01:08:54;22.30;90.00
16287;DHT22;8251;53.568;10.018;2022-07-22T01:11:21;22.20;89.90
16287;DHT22;8251;53.568;10.018;2022-07-22T01:13:50;22.20;90.00
16287;DHT22;8251;53.568;10.018;2022-07-22T01:16:17;22.20;89.90
16287;DHT22;8251;53.568;10.018;2022-07-22T01:18:45;22.10;90.00
16287;DHT22;8251;53.568;10.018;2022-07-22T01:21:14;22.10;89.70
16287;DHT22;8251;53.568;10.018;2022-07-22T01:23:42;22.00;89.70
16287;DHT22;8251;53.568;10.018;2022-07-22T01:26:12;21.90;89.90
16287;DHT22;8251;53.568;10.018;2022-07-22T01:28:39;21.90;89.90
16287;DHT22;8251;53.568;10.018;2022-07-22T01:31:07;21.80;89.90
16287;DHT22;8251;53.568;10.018;2022-07-22T01:33:35;21.70;89.10
16287;DHT22;8251;53.568;10.018;2022-07-22T01:36:03;21.70;89.10
16287;DHT22;8251;53.568;10.018;2022-07-22T01:38:32;21.60;89.00
16287;DHT22;8251;53.568;10.018;2022-07-22T01:40:59;21.60;88.90
16287;DHT22;8251;53.568;10.018;2022-07-22T01:43:26;21.50;88.60
16287;DHT22;8251;53.568;10.018;2022-07-22T01:45:54;21.40;88.20
16287;DHT22;8251;53.568;10.018;2022-07-22T01:48:21;21.40;88.60
16287;DHT22;8251;53.568;10.018;2022-07-22T01:50:49;21.40;89.10
16287;DHT22;8251;53.568;10.018;2022-07-22T01:53:16;21.30;89.40
16287;DHT22;8251;53.568;10.018;2022-07-22T01:55:45;21.30;89.60
16287;DHT22;8251;53.568;10.018;2022-07-22T01:58:12;21.30;89.70
16287;DHT22;8251;53.568;10.018;2022-07-22T02:00:39;21.20;89.00
16287;DHT22;8251;53.568;10.018;2022-07-22T02:03:06;21.20;89.00
16287;DHT22;8251;53.568;10.018;2022-07-22T02:05:33;21.20;89.00
16287;DHT22;8251;53.568;10.018;2022-07-22T02:08:01;21.10;88.60
16287;DHT22;8251;53.568;10.018;2022-07-22T02:10:28;21.10;88.90
16287;DHT22;8251;53.568;10.018;2022-07-22T02:12:58;21.10;89.00
16287;DHT22;8251;53.568;10.018;2022-07-22T02:15:25;21.00;88.90
16287;DHT22;8251;53.568;10.018;2022-07-22T02:17:52;21.00;89.10
16287;DHT22;8251;53.568;10.018;2022-07-22T02:20:20;21.00;88.90
16287;DHT22;8251;53.568;10.018;2022-07-22T02:22:47;21.00;89.10
16287;DHT22;8251;53.568;10.018;2022-07-22T02:25:14;21.00;88.80
16287;DHT22;8251;53.568;10.018;2022-07-22T02:27:42;21.00;89.00
16287;DHT22;8251;53.568;10.018;2022-07-22T02:30:12;21.00;89.20
16287;DHT22;8251;53.568;10.018;2022-07-22T02:32:39;20.90;89.10
16287;DHT22;8251;53.568;10.018;2022-07-22T02:35:06;20.90;88.80
16287;DHT22;8251;53.568;10.018;2022-07-22T02:37:33;20.90;88.40
16287;DHT22;8251;53.568;10.018;2022-07-22T02:40:03;20.90;88.60
16287;DHT22;8251;53.568;10.018;2022-07-22T02:42:30;20.80;88.30
16287;DHT22;8251;53.568;10.018;2022-07-22T02:44:57;20.80;88.50
16287;DHT22;8251;53.568;10.018;2022-07-22T02:47:25;20.80;88.70
16287;DHT22;8251;53.568;10.018;2022-07-22T02:49:52;20.80;88.80
16287;DHT22;8251;53.568;10.018;2022-07-22T02:52:19;20.80;88.70
16287;DHT22;8251;53.568;10.018;2022-07-22T02:54:47;20.80;88.40
16287;DHT22;8251;53.568;10.018;2022-07-22T02:57:16;20.80;88.30
16287;DHT22;8251;53.568;10.018;2022-07-22T02:59:43;20.70;88.20
16287;DHT22;8251;53.568;10.018;2022-07-22T03:02:10;20.70;88.40
16287;DHT22;8251;53.568;10.018;2022-07-22T03:04:38;20.70;89.00
16287;DHT22;8251;53.568;10.018;2022-07-22T03:07:08;20.70;88.70
16287;DHT22;8251;53.568;10.018;2022-07-22T03:09:35;20.60;88.50
16287;DHT22;8251;53.568;10.018;2022-07-22T03:12:01;20.60;88.80
16287;DHT22;8251;53.568;10.018;2022-07-22T03:14:29;20.60;89.00
16287;DHT22;8251;53.568;10.018;2022-07-22T03:16:59;20.70;89.00
16287;DHT22;8251;53.568;10.018;2022-07-22T03:19:25;20.60;89.10
16287;DHT22;8251;53.568;10.018;2022-07-22T03:21:54;20.60;89.50
16287;DHT22;8251;53.568;10.018;2022-07-22T03:24:21;20.70;89.50
16287;DHT22;8251;53.568;10.018;2022-07-22T03:27:02;20.60;89.20
16287;DHT22;8251;53.568;10.018;2022-07-22T03:29:28;20.60;89.10
16287;DHT22;8251;53.568;10.018;2022-07-22T03:31:55;20.60;89.00
16287;DHT22;8251;53.568;10.018;2022-07-22T03:34:22;20.60;88.90
16287;DHT22;8251;53.568;10.018;2022-07-22T03:36:50;20.60;89.20
16287;DHT22;8251;53.568;10.018;2022-07-22T03:39:18;20.60;89.30
16287;DHT22;8251;53.568;10.018;2022-07-22T03:41:45;20.60;89.10
16287;DHT22;8251;53.568;10.018;2022-07-22T03:44:12;20.60;89.10
16287;DHT22;8251;53.568;10.018;2022-07-22T03:46:39;20.60;88.80
16287;DHT22;8251;53.568;10.018;2022-07-22T03:49:05;20.60;88.70
16287;DHT22;8251;53.568;10.018;2022-07-22T03:51:32;20.60;89.10
16287;DHT22;8251;53.568;10.018;2022-07-22T03:53:59;20.60;89.00
16287;DHT22;8251;53.568;10.018;2022-07-22T03:56:28;20.50;88.80
16287;DHT22;8251;53.568;10.018;2022-07-22T03:58:55;20.60;88.80
16287;DHT22;8251;53.568;10.018;2022-07-22T04:01:21;20.50;88.70
16287;DHT22;8251;53.568;10.018;2022-07-22T04:03:48;20.50;88.70
16287;DHT22;8251;53.568;10.018;2022-07-22T04:06:15;20.50;88.60
16287;DHT22;8251;53.568;10.018;2022-07-22T04:08:43;20.60;88.80
16287;DHT22;8251;53.568;10.018;2022-07-22T04:11:10;20.60;88.90
16287;DHT22;8251;53.568;10.018;2022-07-22T04:13:38;20.50;89.00
16287;DHT22;8251;53.568;10.018;2022-07-22T04:16:05;20.50;89.30
16287;DHT22;8251;53.568;10.018;2022-07-22T04:18:32;20.50;89.30
16287;DHT22;8251;53.568;10.018;2022-07-22T04:20:59;20.50;89.10
16287;DHT22;8251;53.568;10.018;2022-07-22T04:23:26;20.50;89.10
16287;DHT22;8251;53.568;10.018;2022-07-22T04:25:54;20.50;89.20
16287;DHT22;8251;53.568;10.018;2022-07-22T04:28:22;20.50;89.20
16287;DHT22;8251;53.568;10.018;2022-07-22T04:30:50;20.50;89.50
16287;DHT22;8251;53.568;10.018;2022-07-22T04:33:17;20.50;89.70
16287;DHT22;8251;53.568;10.018;2022-07-22T04:35:44;20.50;89.80
16287;DHT22;8251;53.568;10.018;2022-07-22T04:38:11;20.50;89.80
16287;DHT22;8251;53.568;10.018;2022-07-22T04:40:38;20.50;89.90
16287;DHT22;8251;53.568;10.018;2022-07-22T04:43:08;20.50;89.90
16287;DHT22;8251;53.568;10.018;2022-07-22T04:45:35;20.50;89.90
16287;DHT22;8251;53.568;10.018;2022-07-22T04:48:04;20.50;89.90
16287;DHT22;8251;53.568;10.018;2022-07-22T04:50:31;20.50;89.80
16287;DHT22;8251;53.568;10.018;2022-07-22T04:52:58;20.50;90.00
16287;DHT22;8251;53.568;10.018;2022-07-22T04:55:25;20.50;90.10
16287;DHT22;8251;53.568;10.018;2022-07-22T04:57:52;20.50;90.20
16287;DHT22;8251;53.568;10.018;2022-07-22T05:00:20;20.50;90.30
16287;DHT22;8251;53.568;10.018;2022-07-22T05:02:47;20.50;90.30
16287;DHT22;8251;53.568;10.018;2022-07-22T05:05:18;20.50;90.20
16287;DHT22;8251;53.568;10.018;2022-07-22T05:07:45;20.50;90.30
16287;DHT22;8251;53.568;10.018;2022-07-22T05:10:13;20.50;90.20
16287;DHT22;8251;53.568;10.018;2022-07-22T05:12:39;20.50;90.20
16287;DHT22;8251;53.568;10.018;2022-07-22T05:15:07;20.50;90.10
16287;DHT22;8251;53.568;10.018;2022-07-22T05:17:34;20.60;90.30
16287;DHT22;8251;53.568;10.018;2022-07-22T05:20:02;20.60;90.30
16287;DHT22;8251;53.568;10.018;2022-07-22T05:22:31;20.60;90.10
16287;DHT22;8251;53.568;10.018;2022-07-22T05:24:58;20.60;89.90
16287;DHT22;8251;53.568;10.018;2022-07-22T05:27:25;20.60;89.60
16287;DHT22;8251;53.568;10.018;2022-07-22T05:29:52;20.60;89.60
16287;DHT22;8251;53.568;10.018;2022-07-22T05:32:19;20.60;89.50
16287;DHT22;8251;53.568;10.018;2022-07-22T05:34:46;20.50;89.90
16287;DHT22;8251;53.568;10.018;2022-07-22T05:37:13;20.50;90.00
16287;DHT22;8251;53.568;10.018;2022-07-22T05:39:43;20.50;90.10
16287;DHT22;8251;53.568;10.018;2022-07-22T05:42:10;20.50;90.10
16287;DHT22;8251;53.568;10.018;2022-07-22T05:44:37;20.50;90.00
16287;DHT22;8251;53.568;10.018;2022-07-22T05:47:07;20.50;89.90
16287;DHT22;8251;53.568;10.018;2022-07-22T05:49:34;20.50;90.00
16287;DHT22;8251;53.568;10.018;2022-07-22T05:52:01;20.50;90.10
16287;DHT22;8251;53.568;10.018;2022-07-22T05:54:28;20.50;90.00
16287;DHT22;8251;53.568;10.018;2022-07-22T05:56:59;20.50;89.80
16287;DHT22;8251;53.568;10.018;2022-07-22T05:59:26;20.50;89.60
16287;DHT22;8251;53.568;10.018;2022-07-22T06:01:56;20.60;89.50
16287;DHT22;8251;53.568;10.018;2022-07-22T06:04:23;20.60;89.30
16287;DHT22;8251;53.568;10.018;2022-07-22T06:06:50;20.60;89.20
16287;DHT22;8251;53.568;10.018;2022-07-22T06:09:18;20.60;89.00
16287;DHT22;8251;53.568;10.018;2022-07-22T06:11:45;20.70;88.70
16287;DHT22;8251;53.568;10.018;2022-07-22T06:14:16;20.70;88.90
16287;DHT22;8251;53.568;10.018;2022-07-22T06:16:43;20.70;89.10
16287;DHT22;8251;53.568;10.018;2022-07-22T06:19:13;20.80;89.10
16287;DHT22;8251;53.568;10.018;2022-07-22T06:21:40;20.80;88.00
16287;DHT22;8251;53.568;10.018;2022-07-22T06:24:08;20.80;88.40
16287;DHT22;8251;53.568;10.018;2022-07-22T06:26:34;20.80;88.30
16287;DHT22;8251;53.568;10.018;2022-07-22T06:29:01;20.80;88.60
16287;DHT22;8251;53.568;10.018;2022-07-22T06:31:30;20.90;89.00
16287;DHT22;8251;53.568;10.018;2022-07-22T06:33:57;20.90;88.80
16287;DHT22;8251;53.568;10.018;2022-07-22T06:36:23;20.90;88.80
16287;DHT22;8251;53.568;10.018;2022-07-22T06:38:50;21.10;89.00
16287;DHT22;8251;53.568;10.018;2022-07-22T06:41:17;21.20;88.90
16287;DHT22;8251;53.568;10.018;2022-07-22T06:43:45;21.30;88.80
16287;DHT22;8251;53.568;10.018;2022-07-22T06:46:12;21.40;88.20
16287;DHT22;8251;53.568;10.018;2022-07-22T06:48:44;21.50;87.60
16287;DHT22;8251;53.568;10.018;2022-07-22T06:51:10;21.50;86.70
16287;DHT22;8251;53.568;10.018;2022-07-22T06:53:37;21.60;86.30
16287;DHT22;8251;53.568;10.018;2022-07-22T06:56:05;21.60;84.70
16287;DHT22;8251;53.568;10.018;2022-07-22T06:58:32;21.50;84.80
16287;DHT22;8251;53.568;10.018;2022-07-22T07:00:59;21.50;85.30
16287;DHT22;8251;53.568;10.018;2022-07-22T07:03:31;21.40;85.40
16287;DHT22;8251;53.568;10.018;2022-07-22T07:06:02;21.50;85.50
16287;DHT22;8251;53.568;10.018;2022-07-22T07:08:33;21.50;85.70
16287;DHT22;8251;53.568;10.018;2022-07-22T07:11:03;21.50;85.40
16287;DHT22;8251;53.568;10.018;2022-07-22T07:13:30;21.50;84.40
16287;DHT22;8251;53.568;10.018;2022-07-22T07:15:57;21.50;83.60
16287;DHT22;8251;53.568;10.018;2022-07-22T07:18:24;21.50;83.90
16287;DHT22;8251;53.568;10.018;2022-07-22T07:20:51;21.50;84.60
16287;DHT22;8251;53.568;10.018;2022-07-22T07:23:20;21.50;84.50
16287;DHT22;8251;53.568;10.018;2022-07-22T07:25:47;21.50;84.10
16287;DHT22;8251;53.568;10.018;2022-07-22T07:28:14;21.60;84.30
16287;DHT22;8251;53.568;10.018;2022-07-22T07:30:41;21.60;83.70
16287;DHT22;8251;53.568;10.018;2022-07-22T07:33:08;21.60;83.30
16287;DHT22;8251;53.568;10.018;2022-07-22T07:35:35;21.50;82.40
16287;DHT22;8251;53.568;10.018;2022-07-22T07:38:02;21.50;82.10
16287;DHT22;8251;53.568;10.018;2022-07-22T07:40:34;21.60;81.90
16287;DHT22;8251;53.568;10.018;2022-07-22T07:43:01;21.60;81.80
16287;DHT22;8251;53.568;10.018;2022-07-22T07:45:28;21.50;81.00
16287;DHT22;8251;53.568;10.018;2022-07-22T07:47:55;21.40;80.70
16287;DHT22;8251;53.568;10.018;2022-07-22T07:50:23;21.40;80.70
16287;DHT22;8251;53.568;10.018;2022-07-22T07:52:50;21.40;81.40
16287;DHT22;8251;53.568;10.018;2022-07-22T07:55:18;21.50;81.70
16287;DHT22;8251;53.568;10.018;2022-07-22T07:57:47;21.50;81.00
16287;DHT22;8251;53.568;10.018;2022-07-22T08:00:16;21.60;80.80
16287;DHT22;8251;53.568;10.018;2022-07-22T08:02:47;21.60;80.00
16287;DHT22;8251;53.568;10.018;2022-07-22T08:05:14;21.70;80.10
16287;DHT22;8251;53.568;10.018;2022-07-22T08:07:41;21.80;81.00
16287;DHT22;8251;53.568;10.018;2022-07-22T08:10:09;21.80;80.70
16287;DHT22;8251;53.568;10.018;2022-07-22T08:12:36;21.80;79.40
16287;DHT22;8251;53.568;10.018;2022-07-22T08:15:06;21.80;78.00
16287;DHT22;8251;53.568;10.018;2022-07-22T08:17:35;21.80;77.40
16287;DHT22;8251;53.568;10.018;2022-07-22T08:20:04;21.80;77.60
16287;DHT22;8251;53.568;10.018;2022-07-22T08:22:31;21.80;77.80
16287;DHT22;8251;53.568;10.018;2022-07-22T08:25:02;21.80;78.10
16287;DHT22;8251;53.568;10.018;2022-07-22T08:27:29;21.80;77.80
16287;DHT22;8251;53.568;10.018;2022-07-22T08:29:56;21.80;77.30
16287;DHT22;8251;53.568;10.018;2022-07-22T08:32:27;21.80;76.10
16287;DHT22;8251;53.568;10.018;2022-07-22T08:34:57;21.80;75.50
16287;DHT22;8251;53.568;10.018;2022-07-22T08:37:24;22.00;75.50
16287;DHT22;8251;53.568;10.018;2022-07-22T08:39:51;22.00;73.90
16287;DHT22;8251;53.568;10.018;2022-07-22T08:42:20;22.10;73.70
16287;DHT22;8251;53.568;10.018;2022-07-22T08:44:47;22.10;73.80
16287;DHT22;8251;53.568;10.018;2022-07-22T08:47:15;22.10;73.30
16287;DHT22;8251;53.568;10.018;2022-07-22T08:49:43;22.20;73.50
16287;DHT22;8251;53.568;10.018;2022-07-22T08:52:11;22.60;73.30
16287;DHT22;8251;53.568;10.018;2022-07-22T08:54:38;22.80;72.50
16287;DHT22;8251;53.568;10.018;2022-07-22T08:57:05;22.90;72.10
16287;DHT22;8251;53.568;10.018;2022-07-22T08:59:32;22.90;71.70
16287;DHT22;8251;53.568;10.018;2022-07-22T09:02:04;22.90;70.80
16287;DHT22;8251;53.568;10.018;2022-07-22T09:04:32;22.80;70.30
16287;DHT22;8251;53.568;10.018;2022-07-22T09:07:27;22.80;70.40
16287;DHT22;8251;53.568;10.018;2022-07-22T09:10:01;22.80;70.80
16287;DHT22;8251;53.568;10.018;2022-07-22T09:12:54;22.80;70.30
16287;DHT22;8251;53.568;10.018;2022-07-22T09:15:26;22.70;70.70
16287;DHT22;8251;53.568;10.018;2022-07-22T09:17:53;22.80;71.50
16287;DHT22;8251;53.568;10.018;2022-07-22T09:20:20;22.90;70.10
16287;DHT22;8251;53.568;10.018;2022-07-22T09:22:51;22.90;69.20
16287;DHT22;8251;53.568;10.018;2022-07-22T09:25:30;23.20;69.00
16287;DHT22;8251;53.568;10.018;2022-07-22T09:28:15;23.70;68.10
16287;DHT22;8251;53.568;10.018;2022-07-22T09:30:49;24.00;65.40
16287;DHT22;8251;53.568;10.018;2022-07-22T09:33:18;24.10;64.20
16287;DHT22;8251;53.568;10.018;2022-07-22T09:35:46;24.10;64.50
16287;DHT22;8251;53.568;10.018;2022-07-22T09:38:27;24.00;65.00
16287;DHT22;8251;53.568;10.018;2022-07-22T09:40:55;23.80;63.80
16287;DHT22;8251;53.568;10.018;2022-07-22T09:43:22;23.70;63.80
16287;DHT22;8251;53.568;10.018;2022-07-22T09:45:51;23.60;64.40
16287;DHT22;8251;53.568;10.018;2022-07-22T09:48:21;23.40;64.50
16287;DHT22;8251;53.568;10.018;2022-07-22T09:50:49;23.20;64.10
16287;DHT22;8251;53.568;10.018;2022-07-22T09:53:19;23.20;65.20
16287;DHT22;8251;53.568;10.018;2022-07-22T09:55:47;23.20;66.60
16287;DHT22;8251;53.568;10.018;2022-07-22T09:58:14;23.10;66.60
16287;DHT22;8251;53.568;10.018;2022-07-22T10:00:41;23.20;67.10
16287;DHT22;8251;53.568;10.018;2022-07-22T10:03:13;23.20;67.30
16287;DHT22;8251;53.568;10.018;2022-07-22T10:05:44;23.30;66.60
16287;DHT22;8251;53.568;10.018;2022-07-22T10:08:11;23.30;65.90
16287;DHT22;8251;53.568;10.018;2022-07-22T10:10:40;23.40;65.90
16287;DHT22;8251;53.568;10.018;2022-07-22T10:13:08;23.50;65.80
16287;DHT22;8251;53.568;10.018;2022-07-22T10:15:36;23.50;65.30
16287;DHT22;8251;53.568;10.018;2022-07-22T10:18:06;23.50;64.10
16287;DHT22;8251;53.568;10.018;2022-07-22T10:20:34;23.50;63.90
16287;DHT22;8251;53.568;10.018;2022-07-22T10:23:02;23.30;63.70
16287;DHT22;8251;53.568;10.018;2022-07-22T10:25:31;23.30;64.50
16287;DHT22;8251;53.568;10.018;2022-07-22T10:28:01;23.20;64.90
16287;DHT22;8251;53.568;10.018;2022-07-22T10:30:31;23.10;64.10
16287;DHT22;8251;53.568;10.018;2022-07-22T10:33:10;23.10;64.90
16287;DHT22;8251;53.568;10.018;2022-07-22T10:35:55;23.10;65.00
16287;DHT22;8251;53.568;10.018;2022-07-22T10:38:23;23.10;64.40
16287;DHT22;8251;53.568;10.018;2022-07-22T10:40:53;23.00;64.60
16287;DHT22;8251;53.568;10.018;2022-07-22T10:43:24;23.00;65.70
16287;DHT22;8251;53.568;10.018;2022-07-22T10:45:53;23.00;65.50
16287;DHT22;8251;53.568;10.018;2022-07-22T10:48:23;22.90;66.00
16287;DHT22;8251;53.568;10.018;2022-07-22T10:53:54;22.90;64.20
16287;DHT22;8251;53.568;10.018;2022-07-22T10:56:24;22.80;65.10
16287;DHT22;8251;53.568;10.018;2022-07-22T10:59:07;22.80;65.00
16287;DHT22;8251;53.568;10.018;2022-07-22T11:01:36;22.80;65.10
16287;DHT22;8251;53.568;10.018;2022-07-22T11:04:12;22.80;66.00
16287;DHT22;8251;53.568;10.018;2022-07-22T11:06:40;22.90;66.20
16287;DHT22;8251;53.568;10.018;2022-07-22T11:09:08;22.90;66.60
16287;DHT22;8251;53.568;10.018;2022-07-22T11:11:43;22.90;66.40
16287;DHT22;8251;53.568;10.018;2022-07-22T11:14:20;22.90;65.60
16287;DHT22;8251;53.568;10.018;2022-07-22T11:16:49;22.90;65.70
16287;DHT22;8251;53.568;10.018;2022-07-22T11:19:20;22.90;66.20
16287;DHT22;8251;53.568;10.018;2022-07-22T11:21:50;22.90;66.50
16287;DHT22;8251;53.568;10.018;2022-07-22T11:24:18;22.90;65.50
16287;DHT22;8251;53.568;10.018;2022-07-22T11:26:47;23.00;65.10
16287;DHT22;8251;53.568;10.018;2022-07-22T11:29:18;23.00;63.40
16287;DHT22;8251;53.568;10.018;2022-07-22T11:31:45;23.00;63.80
16287;DHT22;8251;53.568;10.018;2022-07-22T11:34:15;23.00;64.10
16287;DHT22;8251;53.568;10.018;2022-07-22T11:36:44;23.00;64.60
16287;DHT22;8251;53.568;10.018;2022-07-22T11:39:17;23.00;64.90
16287;DHT22;8251;53.568;10.018;2022-07-22T11:41:45;23.00;64.20
16287;DHT22;8251;53.568;10.018;2022-07-22T11:44:11;23.00;64.00
16287;DHT22;8251;53.568;10.018;2022-07-22T11:46:41;23.10;64.70
16287;DHT22;8251;53.568;10.018;2022-07-22T11:49:09;23.10;64.70
16287;DHT22;8251;53.568;10.018;2022-07-22T11:51:39;23.10;64.30
16287;DHT22;8251;53.568;10.018;2022-07-22T11:54:07;23.10;63.50
16287;DHT22;8251;53.568;10.018;2022-07-22T11:56:35;23.10;64.10
16287;DHT22;8251;53.568;10.018;2022-07-22T11:59:04;23.20;63.90
16287;DHT22;8251;53.568;10.018;2022-07-22T12:01:32;23.20;63.70
16287;DHT22;8251;53.568;10.018;2022-07-22T12:04:03;23.30;64.00
16287;DHT22;8251;53.568;10.018;2022-07-22T12:06:32;23.30;63.70
16287;DHT22;8251;53.568;10.018;2022-07-22T12:09:11;23.40;62.70
16287;DHT22;8251;53.568;10.018;2022-07-22T12:11:47;23.40;61.90
16287;DHT22;8251;53.568;10.018;2022-07-22T12:14:18;23.40;62.30
16287;DHT22;8251;53.568;10.018;2022-07-22T12:16:54;23.30;61.60
16287;DHT22;8251;53.568;10.018;2022-07-22T12:19:24;23.30;62.00
16287;DHT22;8251;53.568;10.018;2022-07-22T12:21:56;23.20;62.60
16287;DHT22;8251;53.568;10.018;2022-07-22T12:24:28;23.30;63.90
16287;DHT22;8251;53.568;10.018;2022-07-22T12:26:56;23.20;62.40
16287;DHT22;8251;53.568;10.018;2022-07-22T12:29:25;23.20;61.70
16287;DHT22;8251;53.568;10.018;2022-07-22T12:31:54;23.20;62.40
16287;DHT22;8251;53.568;10.018;2022-07-22T12:34:35;23.20;62.00
16287;DHT22;8251;53.568;10.018;2022-07-22T12:37:15;23.20;62.50
16287;DHT22;8251;53.568;10.018;2022-07-22T12:39:58;23.30;62.10
16287;DHT22;8251;53.568;10.018;2022-07-22T12:42:28;23.30;62.00
16287;DHT22;8251;53.568;10.018;2022-07-22T12:45:03;23.30;63.00
16287;DHT22;8251;53.568;10.018;2022-07-22T12:47:45;23.20;61.60
16287;DHT22;8251;53.568;10.018;2022-07-22T12:50:32;23.20;61.60
16287;DHT22;8251;53.568;10.018;2022-07-22T12:53:02;23.20;61.40
16287;DHT22;8251;53.568;10.018;2022-07-22T12:55:31;23.20;61.30
16287;DHT22;8251;53.568;10.018;2022-07-22T12:57:58;23.20;60.50
16287;DHT22;8251;53.568;10.018;2022-07-22T13:00:27;23.30;61.00
16287;DHT22;8251;53.568;10.018;2022-07-22T13:02:54;23.40;62.10
16287;DHT22;8251;53.568;10.018;2022-07-22T13:05:23;23.50;61.60
16287;DHT22;8251;53.568;10.018;2022-07-22T13:07:52;23.50;60.40
16287;DHT22;8251;53.568;10.018;2022-07-22T13:10:21;23.60;59.80
16287;DHT22;8251;53.568;10.018;2022-07-22T13:12:57;23.60;59.00
16287;DHT22;8251;53.568;10.018;2022-07-22T13:15:26;23.50;59.40
16287;DHT22;8251;53.568;10.018;2022-07-22T13:17:53;23.60;60.70
16287;DHT22;8251;53.568;10.018;2022-07-22T13:20:20;23.60;60.70
16287;DHT22;8251;53.568;10.018;2022-07-22T13:22:48;23.70;60.60
16287;DHT22;8251;53.568;10.018;2022-07-22T13:25:16;23.80;60.70
16287;DHT22;8251;53.568;10.018;2022-07-22T13:27:43;23.80;60.00
16287;DHT22;8251;53.568;10.018;2022-07-22T13:30:11;23.80;59.80
16287;DHT22;8251;53.568;10.018;2022-07-22T13:32:39;23.90;60.70
16287;DHT22;8251;53.568;10.018;2022-07-22T13:35:07;23.90;60.00
16287;DHT22;8251;53.568;10.018;2022-07-22T13:37:34;23.90;60.00
16287;DHT22;8251;53.568;10.018;2022-07-22T13:40:01;24.00;60.50
16287;DHT22;8251;53.568;10.018;2022-07-22T13:42:30;24.10;59.70
16287;DHT22;8251;53.568;10.018;2022-07-22T13:44:57;24.00;59.70
16287;DHT22;8251;53.568;10.018;2022-07-22T13:47:24;24.00;60.10
16287;DHT22;8251;53.568;10.018;2022-07-22T13:49:52;24.10;60.40
16287;DHT22;8251;53.568;10.018;2022-07-22T13:52:22;24.00;60.00
16287;DHT22;8251;53.568;10.018;2022-07-22T13:54:50;24.00;59.70
16287;DHT22;8251;53.568;10.018;2022-07-22T13:57:18;24.00;59.20
16287;DHT22;8251;53.568;10.018;2022-07-22T13:59:47;23.90;58.90
16287;DHT22;8251;53.568;10.018;2022-07-22T14:02:14;23.90;58.70
16287;DHT22;8251;53.568;10.018;2022-07-22T14:04:42;23.80;58.60
16287;DHT22;8251;53.568;10.018;2022-07-22T14:07:09;23.80;59.80
16287;DHT22;8251;53.568;10.018;2022-07-22T14:09:38;23.90;59.50
16287;DHT22;8251;53.568;10.018;2022-07-22T14:12:10;23.90;59.70
16287;DHT22;8251;53.568;10.018;2022-07-22T14:14:39;23.90;59.70
16287;DHT22;8251;53.568;10.018;2022-07-22T14:17:07;24.00;59.50
16287;DHT22;8251;53.568;10.018;2022-07-22T14:19:34;24.00;60.30
16287;DHT22;8251;53.568;10.018;2022-07-22T14:22:01;24.10;59.50
16287;DHT22;8251;53.568;10.018;2022-07-22T14:24:28;24.20;59.30
16287;DHT22;8251;53.568;10.018;2022-07-22T14:26:55;24.20;58.80
16287;DHT22;8251;53.568;10.018;2022-07-22T14:29:22;24.20;59.50
16287;DHT22;8251;53.568;10.018;2022-07-22T14:31:49;24.20;59.60
16287;DHT22;8251;53.568;10.018;2022-07-22T14:34:18;24.10;59.80
16287;DHT22;8251;53.568;10.018;2022-07-22T14:36:45;24.00;59.60
16287;DHT22;8251;53.568;10.018;2022-07-22T14:39:11;24.00;60.30
16287;DHT22;8251;53.568;10.018;2022-07-22T14:41:41;24.10;60.30
16287;DHT22;8251;53.568;10.018;2022-07-22T14:44:15;24.10;59.90
16287;DHT22;8251;53.568;10.018;2022-07-22T14:46:46;24.10;59.00
16287;DHT22;8251;53.568;10.018;2022-07-22T14:49:13;24.00;58.70
16287;DHT22;8251;53.568;10.018;2022-07-22T14:51:42;24.00;59.40
16287;DHT22;8251;53.568;10.018;2022-07-22T14:54:12;24.00;60.00
16287;DHT22;8251;53.568;10.018;2022-07-22T14:56:39;24.00;59.80
16287;DHT22;8251;53.568;10.018;2022-07-22T14:59:06;24.00;59.70
16287;DHT22;8251;53.568;10.018;2022-07-22T15:01:37;24.10;59.00
16287;DHT22;8251;53.568;10.018;2022-07-22T15:04:04;24.10;58.60
16287;DHT22;8251;53.568;10.018;2022-07-22T15:06:31;24.00;58.50
16287;DHT22;8251;53.568;10.018;2022-07-22T15:08:59;24.00;59.20
16287;DHT22;8251;53.568;10.018;2022-07-22T15:11:26;24.00;59.10
16287;DHT22;8251;53.568;10.018;2022-07-22T15:13:54;24.10;58.90
16287;DHT22;8251;53.568;10.018;2022-07-22T15:16:21;24.20;58.80
16287;DHT22;8251;53.568;10.018;2022-07-22T15:18:48;24.20;59.00
16287;DHT22;8251;53.568;10.018;2022-07-22T15:21:15;24.20;59.20
16287;DHT22;8251;53.568;10.018;2022-07-22T15:23:42;24.20;59.50
16287;DHT22;8251;53.568;10.018;2022-07-22T15:26:11;24.20;58.60
16287;DHT22;8251;53.568;10.018;2022-07-22T15:28:37;24.30;58.20
16287;DHT22;8251;53.568;10.018;2022-07-22T15:31:05;24.30;57.70
16287;DHT22;8251;53.568;10.018;2022-07-22T15:33:32;24.40;57.60
16287;DHT22;8251;53.568;10.018;2022-07-22T15:35:59;24.20;58.00
16287;DHT22;8251;53.568;10.018;2022-07-22T15:38:27;24.20;57.90
16287;DHT22;8251;53.568;10.018;2022-07-22T15:40:54;24.20;57.70